sensor_id;sensor_type;location;lat;lon;timestamp;P1;durP1;ratioP1;P2;durP2;ratioP2
26269;SDS011;15937;50.612;6.656;2023-11-21T00:02:33;23.17;;;7.53;;
26269;SDS011;15937;50.612;6.656;2023-11-21T00:06:35;15.93;;;7.45;;
26269;SDS011;15937;50.612;6.656;2023-11-21T00:10:37;20.17;;;9.05;;
26269;SDS011;15937;50.612;6.656;2023-11-21T00:14:39;16.67;;;8.07;;
26269;SDS011;15937;50.612;6.656;2023-11-21T00:18:41;17.08;;;9.25;;
26269;SDS011;15937;50.612;6.656;2023-11-21T00:22:44;21.67;;;10.17;;
26269;SDS011;15937;50.612;6.656;2023-11-21T00:26:46;25.75;;;10.20;;
26269;SDS011;15937;50.612;6.656;2023-11-21T00:30:50;21.92;;;10.35;;
26269;SDS011;15937;50.612;6.656;2023-11-21T00:34:52;22.90;;;11.40;;
26269;SDS011;15937;50.612;6.656;2023-11-21T00:38:56;24.33;;;10.00;;
26269;SDS011;15937;50.612;6.656;2023-11-21T00:42:58;26.38;;;10.80;;
26269;SDS011;15937;50.612;6.656;2023-11-21T00:47:00;23.30;;;10.27;;
26269;SDS011;15937;50.612;6.656;2023-11-21T00:51:02;25.80;;;10.83;;
26269;SDS011;15937;50.612;6.656;2023-11-21T00:55:04;16.42;;;8.85;;
26269;SDS011;15937;50.612;6.656;2023-11-21T00:59:09;18.13;;;7.95;;
26269;SDS011;15937;50.612;6.656;2023-11-21T01:03:11;19.65;;;9.40;;
26269;SDS011;15937;50.612;6.656;2023-11-21T01:07:13;20.08;;;7.97;;
26269;SDS011;15937;50.612;6.656;2023-11-21T01:11:15;14.75;;;8.13;;
26269;SDS011;15937;50.612;6.656;2023-11-21T01:15:17;19.30;;;9.00;;
26269;SDS011;15937;50.612;6.656;2023-11-21T01:19:19;19.40;;;8.50;;
26269;SDS011;15937;50.612;6.656;2023-11-21T01:23:21;18.88;;;8.02;;
26269;SDS011;15937;50.612;6.656;2023-11-21T01:27:23;16.17;;;8.43;;
26269;SDS011;15937;50.612;6.656;2023-11-21T01:31:25;24.80;;;9.43;;
26269;SDS011;15937;50.612;6.656;2023-11-21T01:35:30;20.83;;;9.18;;
26269;SDS011;15937;50.612;6.656;2023-11-21T01:39:32;23.20;;;9.02;;
26269;SDS011;15937;50.612;6.656;2023-11-21T01:43:34;28.55;;;10.50;;
26269;SDS011;15937;50.612;6.656;2023-11-21T01:47:36;18.63;;;9.20;;
26269;SDS011;15937;50.612;6.656;2023-11-21T01:51:40;17.67;;;9.55;;
26269;SDS011;15937;50.612;6.656;2023-11-21T01:55:45;19.83;;;8.40;;
26269;SDS011;15937;50.612;6.656;2023-11-21T01:59:47;18.10;;;9.25;;
26269;SDS011;15937;50.612;6.656;2023-11-21T02:03:52;15.82;;;8.50;;
26269;SDS011;15937;50.612;6.656;2023-11-21T02:07:53;18.42;;;8.90;;
26269;SDS011;15937;50.612;6.656;2023-11-21T02:11:56;20.33;;;9.55;;
26269;SDS011;15937;50.612;6.656;2023-11-21T02:16:03;18.35;;;8.32;;
26269;SDS011;15937;50.612;6.656;2023-11-21T02:20:07;18.90;;;9.55;;
26269;SDS011;15937;50.612;6.656;2023-11-21T02:24:09;19.45;;;10.10;;
26269;SDS011;15937;50.612;6.656;2023-11-21T02:28:11;32.83;;;11.77;;
26269;SDS011;15937;50.612;6.656;2023-11-21T02:32:16;27.27;;;9.95;;
26269;SDS011;15937;50.612;6.656;2023-11-21T02:36:20;27.27;;;11.70;;
26269;SDS011;15937;50.612;6.656;2023-11-21T02:40:23;19.88;;;10.98;;
26269;SDS011;15937;50.612;6.656;2023-11-21T02:44:26;33.50;;;11.65;;
26269;SDS011;15937;50.612;6.656;2023-11-21T02:48:28;34.88;;;12.65;;
26269;SDS011;15937;50.612;6.656;2023-11-21T02:52:30;31.85;;;11.40;;
26269;SDS011;15937;50.612;6.656;2023-11-21T02:56:34;25.52;;;11.07;;
26269;SDS011;15937;50.612;6.656;2023-11-21T03:00:36;36.42;;;13.63;;
26269;SDS011;15937;50.612;6.656;2023-11-21T03:04:38;33.38;;;13.75;;
26269;SDS011;15937;50.612;6.656;2023-11-21T03:08:40;32.97;;;12.93;;
26269;SDS011;15937;50.612;6.656;2023-11-21T03:12:43;31.52;;;12.15;;
26269;SDS011;15937;50.612;6.656;2023-11-21T03:16:45;27.33;;;12.85;;
26269;SDS011;15937;50.612;6.656;2023-11-21T03:20:47;32.78;;;14.45;;
26269;SDS011;15937;50.612;6.656;2023-11-21T03:24:49;44.75;;;12.32;;
26269;SDS011;15937;50.612;6.656;2023-11-21T03:28:51;33.70;;;13.80;;
26269;SDS011;15937;50.612;6.656;2023-11-21T03:32:55;32.97;;;11.80;;
26269;SDS011;15937;50.612;6.656;2023-11-21T03:36:57;41.63;;;12.57;;
26269;SDS011;15937;50.612;6.656;2023-11-21T03:45:01;27.83;;;10.88;;
26269;SDS011;15937;50.612;6.656;2023-11-21T03:49:04;29.83;;;11.30;;
26269;SDS011;15937;50.612;6.656;2023-11-21T03:53:06;23.80;;;10.98;;
26269;SDS011;15937;50.612;6.656;2023-11-21T03:57:08;26.77;;;11.48;;
26269;SDS011;15937;50.612;6.656;2023-11-21T04:01:10;37.30;;;12.07;;
26269;SDS011;15937;50.612;6.656;2023-11-21T04:05:12;30.98;;;12.23;;
26269;SDS011;15937;50.612;6.656;2023-11-21T04:09:14;35.80;;;12.90;;
26269;SDS011;15937;50.612;6.656;2023-11-21T04:13:16;26.58;;;12.38;;
26269;SDS011;15937;50.612;6.656;2023-11-21T04:17:19;31.87;;;11.93;;
26269;SDS011;15937;50.612;6.656;2023-11-21T04:21:21;44.90;;;13.05;;
26269;SDS011;15937;50.612;6.656;2023-11-21T04:25:23;30.63;;;12.48;;
26269;SDS011;15937;50.612;6.656;2023-11-21T04:29:25;29.45;;;13.10;;
26269;SDS011;15937;50.612;6.656;2023-11-21T04:33:28;30.92;;;12.00;;
26269;SDS011;15937;50.612;6.656;2023-11-21T04:37:30;29.60;;;12.07;;
26269;SDS011;15937;50.612;6.656;2023-11-21T04:41:32;34.40;;;11.93;;
26269;SDS011;15937;50.612;6.656;2023-11-21T04:45:34;33.67;;;13.00;;
26269;SDS011;15937;50.612;6.656;2023-11-21T04:49:41;31.63;;;12.35;;
26269;SDS011;15937;50.612;6.656;2023-11-21T04:53:44;33.80;;;13.10;;
26269;SDS011;15937;50.612;6.656;2023-11-21T04:57:46;37.38;;;12.35;;
26269;SDS011;15937;50.612;6.656;2023-11-21T05:01:48;29.15;;;11.27;;
26269;SDS011;15937;50.612;6.656;2023-11-21T05:05:50;27.42;;;11.05;;
26269;SDS011;15937;50.612;6.656;2023-11-21T05:14:19;24.88;;;10.57;;
26269;SDS011;15937;50.612;6.656;2023-11-21T05:18:21;38.50;;;11.20;;
26269;SDS011;15937;50.612;6.656;2023-11-21T05:22:24;27.05;;;10.05;;
26269;SDS011;15937;50.612;6.656;2023-11-21T05:26:26;24.50;;;9.40;;
26269;SDS011;15937;50.612;6.656;2023-11-21T05:30:28;26.95;;;10.23;;
26269;SDS011;15937;50.612;6.656;2023-11-21T05:34:30;21.60;;;8.57;;
26269;SDS011;15937;50.612;6.656;2023-11-21T05:38:32;15.70;;;7.40;;
26269;SDS011;15937;50.612;6.656;2023-11-21T05:42:34;20.98;;;7.50;;
26269;SDS011;15937;50.612;6.656;2023-11-21T05:46:37;16.88;;;7.88;;
26269;SDS011;15937;50.612;6.656;2023-11-21T05:50:39;20.35;;;7.45;;
26269;SDS011;15937;50.612;6.656;2023-11-21T05:54:41;20.15;;;8.40;;
26269;SDS011;15937;50.612;6.656;2023-11-21T05:58:43;19.77;;;8.30;;
26269;SDS011;15937;50.612;6.656;2023-11-21T06:02:45;15.00;;;7.22;;
26269;SDS011;15937;50.612;6.656;2023-11-21T06:06:49;20.45;;;7.15;;
26269;SDS011;15937;50.612;6.656;2023-11-21T06:14:54;17.88;;;7.55;;
26269;SDS011;15937;50.612;6.656;2023-11-21T06:18:56;18.20;;;7.85;;
26269;SDS011;15937;50.612;6.656;2023-11-21T06:22:58;18.10;;;8.13;;
26269;SDS011;15937;50.612;6.656;2023-11-21T06:27:04;16.88;;;6.97;;
26269;SDS011;15937;50.612;6.656;2023-11-21T06:31:06;21.07;;;8.53;;
26269;SDS011;15937;50.612;6.656;2023-11-21T06:35:08;13.05;;;6.65;;
26269;SDS011;15937;50.612;6.656;2023-11-21T06:39:11;21.17;;;10.65;;
26269;SDS011;15937;50.612;6.656;2023-11-21T06:43:13;21.08;;;8.23;;
26269;SDS011;15937;50.612;6.656;2023-11-21T06:47:15;21.98;;;9.18;;
26269;SDS011;15937;50.612;6.656;2023-11-21T06:51:17;19.15;;;7.75;;
26269;SDS011;15937;50.612;6.656;2023-11-21T06:55:19;19.40;;;6.97;;
26269;SDS011;15937;50.612;6.656;2023-11-21T06:59:22;16.70;;;7.33;;
26269;SDS011;15937;50.612;6.656;2023-11-21T07:03:25;15.13;;;7.03;;
26269;SDS011;15937;50.612;6.656;2023-11-21T07:07:27;15.35;;;8.50;;
26269;SDS011;15937;50.612;6.656;2023-11-21T07:11:29;16.90;;;6.80;;
26269;SDS011;15937;50.612;6.656;2023-11-21T07:15:31;32.50;;;14.45;;
26269;SDS011;15937;50.612;6.656;2023-11-21T07:19:34;31.37;;;14.70;;
26269;SDS011;15937;50.612;6.656;2023-11-21T07:27:39;29.27;;;12.93;;
26269;SDS011;15937;50.612;6.656;2023-11-21T07:31:41;26.52;;;10.38;;
26269;SDS011;15937;50.612;6.656;2023-11-21T07:35:43;31.45;;;10.93;;
26269;SDS011;15937;50.612;6.656;2023-11-21T07:39:45;23.83;;;12.43;;
26269;SDS011;15937;50.612;6.656;2023-11-21T07:47:50;13.18;;;7.65;;
26269;SDS011;15937;50.612;6.656;2023-11-21T07:51:52;23.07;;;9.80;;
26269;SDS011;15937;50.612;6.656;2023-11-21T07:55:54;21.42;;;8.88;;
26269;SDS011;15937;50.612;6.656;2023-11-21T08:00:07;20.27;;;8.68;;
26269;SDS011;15937;50.612;6.656;2023-11-21T08:04:11;19.33;;;8.48;;
26269;SDS011;15937;50.612;6.656;2023-11-21T08:08:14;18.70;;;8.07;;
26269;SDS011;15937;50.612;6.656;2023-11-21T08:12:16;21.20;;;7.80;;
26269;SDS011;15937;50.612;6.656;2023-11-21T08:16:19;16.95;;;8.40;;
26269;SDS011;15937;50.612;6.656;2023-11-21T08:20:20;27.60;;;9.07;;
26269;SDS011;15937;50.612;6.656;2023-11-21T08:24:24;21.42;;;9.30;;
26269;SDS011;15937;50.612;6.656;2023-11-21T08:28:26;18.23;;;7.87;;
26269;SDS011;15937;50.612;6.656;2023-11-21T08:32:28;26.83;;;10.32;;
26269;SDS011;15937;50.612;6.656;2023-11-21T08:36:34;22.58;;;8.85;;
26269;SDS011;15937;50.612;6.656;2023-11-21T08:40:36;19.90;;;7.78;;
26269;SDS011;15937;50.612;6.656;2023-11-21T08:44:38;17.63;;;8.10;;
26269;SDS011;15937;50.612;6.656;2023-11-21T08:48:41;21.60;;;7.63;;
26269;SDS011;15937;50.612;6.656;2023-11-21T08:52:43;23.45;;;8.13;;
26269;SDS011;15937;50.612;6.656;2023-11-21T08:56:47;16.98;;;7.78;;
26269;SDS011;15937;50.612;6.656;2023-11-21T09:00:51;14.88;;;7.78;;
26269;SDS011;15937;50.612;6.656;2023-11-21T09:04:53;28.23;;;9.73;;
26269;SDS011;15937;50.612;6.656;2023-11-21T09:08:55;20.30;;;9.10;;
26269;SDS011;15937;50.612;6.656;2023-11-21T09:12:57;21.58;;;7.97;;
26269;SDS011;15937;50.612;6.656;2023-11-21T09:17:00;31.70;;;10.27;;
26269;SDS011;15937;50.612;6.656;2023-11-21T09:21:02;24.15;;;9.82;;
26269;SDS011;15937;50.612;6.656;2023-11-21T09:25:06;16.85;;;8.13;;
26269;SDS011;15937;50.612;6.656;2023-11-21T09:29:10;23.90;;;10.02;;
26269;SDS011;15937;50.612;6.656;2023-11-21T09:33:12;24.92;;;9.70;;
26269;SDS011;15937;50.612;6.656;2023-11-21T09:37:14;21.70;;;10.07;;
26269;SDS011;15937;50.612;6.656;2023-11-21T09:41:20;26.58;;;7.97;;
26269;SDS011;15937;50.612;6.656;2023-11-21T09:45:29;20.65;;;7.95;;
26269;SDS011;15937;50.612;6.656;2023-11-21T09:49:37;18.45;;;6.20;;
26269;SDS011;15937;50.612;6.656;2023-11-21T09:53:40;18.40;;;6.30;;
26269;SDS011;15937;50.612;6.656;2023-11-21T09:57:49;16.58;;;6.18;;
26269;SDS011;15937;50.612;6.656;2023-11-21T10:01:51;16.10;;;5.78;;
26269;SDS011;15937;50.612;6.656;2023-11-21T10:05:53;13.10;;;6.15;;
26269;SDS011;15937;50.612;6.656;2023-11-21T10:10:02;18.00;;;5.68;;
26269;SDS011;15937;50.612;6.656;2023-11-21T10:14:06;27.90;;;6.78;;
26269;SDS011;15937;50.612;6.656;2023-11-21T10:18:11;12.45;;;5.30;;
26269;SDS011;15937;50.612;6.656;2023-11-21T10:22:16;19.92;;;6.43;;
26269;SDS011;15937;50.612;6.656;2023-11-21T10:26:20;18.52;;;5.20;;
26269;SDS011;15937;50.612;6.656;2023-11-21T10:30:32;20.13;;;6.90;;
26269;SDS011;15937;50.612;6.656;2023-11-21T10:34:38;33.50;;;7.55;;
26269;SDS011;15937;50.612;6.656;2023-11-21T10:38:43;26.63;;;6.90;;
26269;SDS011;15937;50.612;6.656;2023-11-21T10:42:48;38.63;;;8.00;;
26269;SDS011;15937;50.612;6.656;2023-11-21T10:46:51;40.00;;;7.90;;
26269;SDS011;15937;50.612;6.656;2023-11-21T10:50:58;17.17;;;7.30;;
26269;SDS011;15937;50.612;6.656;2023-11-21T10:55:01;36.37;;;8.63;;
26269;SDS011;15937;50.612;6.656;2023-11-21T10:59:04;25.95;;;8.88;;
26269;SDS011;15937;50.612;6.656;2023-11-21T11:03:08;45.75;;;11.00;;
26269;SDS011;15937;50.612;6.656;2023-11-21T11:07:17;43.67;;;10.40;;
26269;SDS011;15937;50.612;6.656;2023-11-21T11:11:27;49.13;;;11.55;;
26269;SDS011;15937;50.612;6.656;2023-11-21T11:15:31;40.58;;;10.15;;
26269;SDS011;15937;50.612;6.656;2023-11-21T11:19:33;56.60;;;11.75;;
26269;SDS011;15937;50.612;6.656;2023-11-21T11:23:49;44.00;;;9.35;;
26269;SDS011;15937;50.612;6.656;2023-11-21T11:32:05;47.33;;;10.98;;
26269;SDS011;15937;50.612;6.656;2023-11-21T11:36:31;30.52;;;8.50;;
26269;SDS011;15937;50.612;6.656;2023-11-21T11:40:41;29.48;;;8.82;;
26269;SDS011;15937;50.612;6.656;2023-11-21T11:44:47;56.58;;;12.73;;
26269;SDS011;15937;50.612;6.656;2023-11-21T11:49:03;29.10;;;8.93;;
26269;SDS011;15937;50.612;6.656;2023-11-21T11:53:12;34.85;;;10.98;;
26269;SDS011;15937;50.612;6.656;2023-11-21T11:57:16;37.33;;;10.45;;
26269;SDS011;15937;50.612;6.656;2023-11-21T12:01:19;26.90;;;11.10;;
26269;SDS011;15937;50.612;6.656;2023-11-21T12:05:22;34.83;;;10.50;;
26269;SDS011;15937;50.612;6.656;2023-11-21T12:09:25;36.75;;;12.27;;
26269;SDS011;15937;50.612;6.656;2023-11-21T12:13:28;47.88;;;13.30;;
26269;SDS011;15937;50.612;6.656;2023-11-21T12:17:30;34.10;;;11.20;;
26269;SDS011;15937;50.612;6.656;2023-11-21T12:21:32;66.32;;;11.48;;
26269;SDS011;15937;50.612;6.656;2023-11-21T12:25:34;38.43;;;7.83;;
26269;SDS011;15937;50.612;6.656;2023-11-21T12:29:38;135.30;;;12.48;;
26269;SDS011;15937;50.612;6.656;2023-11-21T12:33:42;52.40;;;10.05;;
26269;SDS011;15937;50.612;6.656;2023-11-21T12:37:43;38.08;;;11.32;;
26269;SDS011;15937;50.612;6.656;2023-11-21T12:41:46;30.00;;;8.82;;
26269;SDS011;15937;50.612;6.656;2023-11-21T12:45:48;24.00;;;7.23;;
26269;SDS011;15937;50.612;6.656;2023-11-21T12:49:50;55.78;;;10.10;;
26269;SDS011;15937;50.612;6.656;2023-11-21T12:53:53;31.55;;;8.65;;
26269;SDS011;15937;50.612;6.656;2023-11-21T12:57:57;101.15;;;10.93;;
26269;SDS011;15937;50.612;6.656;2023-11-21T13:02:12;33.67;;;9.10;;
26269;SDS011;15937;50.612;6.656;2023-11-21T13:06:17;34.92;;;8.30;;
26269;SDS011;15937;50.612;6.656;2023-11-21T13:10:24;21.25;;;7.55;;
26269;SDS011;15937;50.612;6.656;2023-11-21T13:14:29;50.40;;;9.75;;
26269;SDS011;15937;50.612;6.656;2023-11-21T13:18:34;31.67;;;9.93;;
26269;SDS011;15937;50.612;6.656;2023-11-21T13:22:36;48.47;;;9.93;;
26269;SDS011;15937;50.612;6.656;2023-11-21T13:26:37;37.05;;;9.73;;
26269;SDS011;15937;50.612;6.656;2023-11-21T13:30:40;46.05;;;10.18;;
26269;SDS011;15937;50.612;6.656;2023-11-21T13:38:49;37.67;;;9.73;;
26269;SDS011;15937;50.612;6.656;2023-11-21T13:46:54;46.50;;;12.52;;
26269;SDS011;15937;50.612;6.656;2023-11-21T13:50:59;44.00;;;9.98;;
26269;SDS011;15937;50.612;6.656;2023-11-21T13:55:19;51.80;;;11.00;;
26269;SDS011;15937;50.612;6.656;2023-11-21T13:59:24;43.83;;;11.38;;
26269;SDS011;15937;50.612;6.656;2023-11-21T14:03:29;52.97;;;10.63;;
26269;SDS011;15937;50.612;6.656;2023-11-21T14:07:43;50.65;;;12.35;;
26269;SDS011;15937;50.612;6.656;2023-11-21T14:11:50;58.08;;;10.68;;
26269;SDS011;15937;50.612;6.656;2023-11-21T14:15:59;45.75;;;10.70;;
26269;SDS011;15937;50.612;6.656;2023-11-21T14:20:03;40.97;;;10.05;;
26269;SDS011;15937;50.612;6.656;2023-11-21T14:24:06;44.80;;;11.30;;
26269;SDS011;15937;50.612;6.656;2023-11-21T14:28:10;43.30;;;11.30;;
26269;SDS011;15937;50.612;6.656;2023-11-21T14:32:13;42.07;;;11.47;;
26269;SDS011;15937;50.612;6.656;2023-11-21T14:36:16;43.85;;;10.98;;
26269;SDS011;15937;50.612;6.656;2023-11-21T14:40:18;45.23;;;11.43;;
26269;SDS011;15937;50.612;6.656;2023-11-21T14:44:25;36.83;;;9.88;;
26269;SDS011;15937;50.612;6.656;2023-11-21T14:48:34;31.63;;;10.05;;
26269;SDS011;15937;50.612;6.656;2023-11-21T14:52:58;41.92;;;12.18;;
26269;SDS011;15937;50.612;6.656;2023-11-21T14:57:01;46.47;;;10.80;;
26269;SDS011;15937;50.612;6.656;2023-11-21T15:01:03;30.10;;;8.50;;
26269;SDS011;15937;50.612;6.656;2023-11-21T15:05:05;36.05;;;8.77;;
26269;SDS011;15937;50.612;6.656;2023-11-21T15:09:09;44.20;;;11.93;;
26269;SDS011;15937;50.612;6.656;2023-11-21T15:13:12;46.80;;;12.00;;
26269;SDS011;15937;50.612;6.656;2023-11-21T15:17:15;42.80;;;12.40;;
26269;SDS011;15937;50.612;6.656;2023-11-21T15:21:25;55.08;;;12.05;;
26269;SDS011;15937;50.612;6.656;2023-11-21T15:25:27;50.28;;;11.52;;
26269;SDS011;15937;50.612;6.656;2023-11-21T15:29:29;41.95;;;12.50;;
26269;SDS011;15937;50.612;6.656;2023-11-21T15:33:31;33.88;;;10.95;;
26269;SDS011;15937;50.612;6.656;2023-11-21T15:37:33;38.63;;;11.27;;
26269;SDS011;15937;50.612;6.656;2023-11-21T15:41:37;46.30;;;12.15;;
26269;SDS011;15937;50.612;6.656;2023-11-21T15:45:40;39.33;;;11.88;;
26269;SDS011;15937;50.612;6.656;2023-11-21T15:49:42;47.65;;;12.68;;
26269;SDS011;15937;50.612;6.656;2023-11-21T15:53:44;40.70;;;12.97;;
26269;SDS011;15937;50.612;6.656;2023-11-21T15:57:46;34.28;;;11.90;;
26269;SDS011;15937;50.612;6.656;2023-11-21T16:01:48;40.42;;;9.95;;
26269;SDS011;15937;50.612;6.656;2023-11-21T16:05:50;43.58;;;11.95;;
26269;SDS011;15937;50.612;6.656;2023-11-21T16:09:52;49.65;;;13.02;;
26269;SDS011;15937;50.612;6.656;2023-11-21T16:13:54;42.10;;;12.93;;
26269;SDS011;15937;50.612;6.656;2023-11-21T16:17:55;74.30;;;24.83;;
26269;SDS011;15937;50.612;6.656;2023-11-21T16:21:57;39.90;;;13.02;;
26269;SDS011;15937;50.612;6.656;2023-11-21T16:25:59;40.03;;;12.40;;
26269;SDS011;15937;50.612;6.656;2023-11-21T16:30:03;37.97;;;12.85;;
26269;SDS011;15937;50.612;6.656;2023-11-21T16:34:13;42.40;;;12.85;;
26269;SDS011;15937;50.612;6.656;2023-11-21T16:38:21;41.28;;;13.65;;
26269;SDS011;15937;50.612;6.656;2023-11-21T16:42:25;44.55;;;13.73;;
26269;SDS011;15937;50.612;6.656;2023-11-21T16:46:31;51.28;;;13.45;;
26269;SDS011;15937;50.612;6.656;2023-11-21T16:50:34;41.75;;;13.70;;
26269;SDS011;15937;50.612;6.656;2023-11-21T16:54:36;35.40;;;11.27;;
26269;SDS011;15937;50.612;6.656;2023-11-21T16:58:38;40.40;;;11.52;;
26269;SDS011;15937;50.612;6.656;2023-11-21T17:02:39;39.95;;;12.50;;
26269;SDS011;15937;50.612;6.656;2023-11-21T17:06:42;33.30;;;11.68;;
26269;SDS011;15937;50.612;6.656;2023-11-21T17:10:48;42.78;;;12.80;;
26269;SDS011;15937;50.612;6.656;2023-11-21T17:14:53;39.72;;;12.05;;
26269;SDS011;15937;50.612;6.656;2023-11-21T17:18:55;38.65;;;12.23;;
26269;SDS011;15937;50.612;6.656;2023-11-21T17:22:58;32.33;;;13.38;;
26269;SDS011;15937;50.612;6.656;2023-11-21T17:27:00;34.78;;;14.70;;
26269;SDS011;15937;50.612;6.656;2023-11-21T17:31:02;41.50;;;16.20;;
26269;SDS011;15937;50.612;6.656;2023-11-21T17:35:04;46.60;;;18.43;;
26269;SDS011;15937;50.612;6.656;2023-11-21T17:39:07;34.42;;;15.80;;
26269;SDS011;15937;50.612;6.656;2023-11-21T17:43:12;39.38;;;16.20;;
26269;SDS011;15937;50.612;6.656;2023-11-21T17:47:14;43.80;;;17.83;;
26269;SDS011;15937;50.612;6.656;2023-11-21T17:51:16;50.92;;;19.70;;
26269;SDS011;15937;50.612;6.656;2023-11-21T17:55:18;41.60;;;16.75;;
26269;SDS011;15937;50.612;6.656;2023-11-21T17:59:21;44.50;;;19.55;;
26269;SDS011;15937;50.612;6.656;2023-11-21T18:03:23;32.53;;;15.57;;
26269;SDS011;15937;50.612;6.656;2023-11-21T18:07:26;31.13;;;14.95;;
26269;SDS011;15937;50.612;6.656;2023-11-21T18:11:29;36.35;;;15.32;;
26269;SDS011;15937;50.612;6.656;2023-11-21T18:15:31;35.67;;;16.35;;
26269;SDS011;15937;50.612;6.656;2023-11-21T18:19:33;32.80;;;15.03;;
26269;SDS011;15937;50.612;6.656;2023-11-21T18:23:36;22.90;;;11.18;;
26269;SDS011;15937;50.612;6.656;2023-11-21T18:27:38;38.17;;;13.57;;
26269;SDS011;15937;50.612;6.656;2023-11-21T18:31:40;30.25;;;14.38;;
26269;SDS011;15937;50.612;6.656;2023-11-21T18:35:42;32.90;;;15.80;;
26269;SDS011;15937;50.612;6.656;2023-11-21T18:39:45;29.30;;;14.57;;
26269;SDS011;15937;50.612;6.656;2023-11-21T18:43:47;34.40;;;14.00;;
26269;SDS011;15937;50.612;6.656;2023-11-21T18:47:50;28.92;;;13.10;;
26269;SDS011;15937;50.612;6.656;2023-11-21T18:51:52;28.08;;;13.30;;
26269;SDS011;15937;50.612;6.656;2023-11-21T18:55:54;38.70;;;12.60;;
26269;SDS011;15937;50.612;6.656;2023-11-21T18:59:56;27.25;;;12.13;;
26269;SDS011;15937;50.612;6.656;2023-11-21T19:03:58;29.97;;;12.50;;
26269;SDS011;15937;50.612;6.656;2023-11-21T19:08:00;26.67;;;12.52;;
26269;SDS011;15937;50.612;6.656;2023-11-21T19:12:03;24.00;;;12.37;;
26269;SDS011;15937;50.612;6.656;2023-11-21T19:16:06;29.10;;;14.07;;
26269;SDS011;15937;50.612;6.656;2023-11-21T19:20:08;27.10;;;11.95;;
26269;SDS011;15937;50.612;6.656;2023-11-21T19:24:10;30.70;;;12.13;;
26269;SDS011;15937;50.612;6.656;2023-11-21T19:28:12;29.35;;;13.48;;
26269;SDS011;15937;50.612;6.656;2023-11-21T19:32:15;32.83;;;14.83;;
26269;SDS011;15937;50.612;6.656;2023-11-21T19:36:17;25.52;;;11.75;;
26269;SDS011;15937;50.612;6.656;2023-11-21T19:40:19;24.38;;;12.60;;
26269;SDS011;15937;50.612;6.656;2023-11-21T19:44:24;27.45;;;13.02;;
26269;SDS011;15937;50.612;6.656;2023-11-21T19:48:26;25.73;;;12.97;;
26269;SDS011;15937;50.612;6.656;2023-11-21T19:52:28;24.73;;;13.23;;
26269;SDS011;15937;50.612;6.656;2023-11-21T19:56:30;28.33;;;13.35;;
26269;SDS011;15937;50.612;6.656;2023-11-21T20:00:33;33.97;;;15.23;;
26269;SDS011;15937;50.612;6.656;2023-11-21T20:04:35;32.80;;;14.88;;
26269;SDS011;15937;50.612;6.656;2023-11-21T20:12:40;20.63;;;10.13;;
26269;SDS011;15937;50.612;6.656;2023-11-21T20:16:45;17.92;;;9.45;;
26269;SDS011;15937;50.612;6.656;2023-11-21T20:20:49;18.38;;;10.63;;
26269;SDS011;15937;50.612;6.656;2023-11-21T20:24:51;26.00;;;10.67;;
26269;SDS011;15937;50.612;6.656;2023-11-21T20:28:53;19.63;;;9.95;;
26269;SDS011;15937;50.612;6.656;2023-11-21T20:32:57;13.82;;;9.07;;
26269;SDS011;15937;50.612;6.656;2023-11-21T20:37:07;16.95;;;8.57;;
26269;SDS011;15937;50.612;6.656;2023-11-21T20:41:10;21.98;;;10.88;;
26269;SDS011;15937;50.612;6.656;2023-11-21T20:45:14;11.00;;;5.90;;
26269;SDS011;15937;50.612;6.656;2023-11-21T20:49:17;10.32;;;4.65;;
26269;SDS011;15937;50.612;6.656;2023-11-21T20:53:19;9.30;;;5.60;;
26269;SDS011;15937;50.612;6.656;2023-11-21T20:57:21;9.40;;;5.77;;
26269;SDS011;15937;50.612;6.656;2023-11-21T21:01:25;13.85;;;7.47;;
26269;SDS011;15937;50.612;6.656;2023-11-21T21:05:27;12.93;;;7.15;;
26269;SDS011;15937;50.612;6.656;2023-11-21T21:09:29;13.43;;;7.63;;
26269;SDS011;15937;50.612;6.656;2023-11-21T21:13:31;13.82;;;6.85;;
26269;SDS011;15937;50.612;6.656;2023-11-21T21:17:33;14.32;;;7.70;;
26269;SDS011;15937;50.612;6.656;2023-11-21T21:21:35;18.23;;;8.13;;
26269;SDS011;15937;50.612;6.656;2023-11-21T21:25:37;16.73;;;7.35;;
26269;SDS011;15937;50.612;6.656;2023-11-21T21:29:38;12.15;;;7.93;;
26269;SDS011;15937;50.612;6.656;2023-11-21T21:33:41;15.93;;;9.00;;
26269;SDS011;15937;50.612;6.656;2023-11-21T21:37:46;13.48;;;8.52;;
26269;SDS011;15937;50.612;6.656;2023-11-21T21:41:50;16.42;;;7.90;;
26269;SDS011;15937;50.612;6.656;2023-11-21T21:45:52;12.77;;;7.75;;
26269;SDS011;15937;50.612;6.656;2023-11-21T21:49:54;19.80;;;9.63;;
26269;SDS011;15937;50.612;6.656;2023-11-21T21:53:56;17.25;;;8.60;;
26269;SDS011;15937;50.612;6.656;2023-11-21T21:57:58;15.03;;;8.90;;
26269;SDS011;15937;50.612;6.656;2023-11-21T22:02:00;18.30;;;9.10;;
26269;SDS011;15937;50.612;6.656;2023-11-21T22:06:02;12.15;;;8.05;;
26269;SDS011;15937;50.612;6.656;2023-11-21T22:14:10;16.35;;;8.07;;
26269;SDS011;15937;50.612;6.656;2023-11-21T22:18:13;13.48;;;8.30;;
26269;SDS011;15937;50.612;6.656;2023-11-21T22:22:15;14.88;;;9.48;;
26269;SDS011;15937;50.612;6.656;2023-11-21T22:26:17;15.95;;;9.25;;
26269;SDS011;15937;50.612;6.656;2023-11-21T22:30:21;15.95;;;8.88;;
26269;SDS011;15937;50.612;6.656;2023-11-21T22:34:25;15.93;;;9.23;;
26269;SDS011;15937;50.612;6.656;2023-11-21T22:38:27;15.10;;;9.15;;
26269;SDS011;15937;50.612;6.656;2023-11-21T22:42:29;17.10;;;9.18;;
26269;SDS011;15937;50.612;6.656;2023-11-21T22:46:31;20.48;;;9.93;;
26269;SDS011;15937;50.612;6.656;2023-11-21T22:50:34;15.88;;;9.20;;
26269;SDS011;15937;50.612;6.656;2023-11-21T22:54:37;17.30;;;9.27;;
26269;SDS011;15937;50.612;6.656;2023-11-21T22:58:39;14.15;;;8.40;;
26269;SDS011;15937;50.612;6.656;2023-11-21T23:02:41;18.17;;;10.25;;
26269;SDS011;15937;50.612;6.656;2023-11-21T23:10:47;15.93;;;9.02;;
26269;SDS011;15937;50.612;6.656;2023-11-21T23:14:51;19.17;;;9.18;;
26269;SDS011;15937;50.612;6.656;2023-11-21T23:18:53;22.85;;;9.00;;
26269;SDS011;15937;50.612;6.656;2023-11-21T23:22:55;18.08;;;9.40;;
26269;SDS011;15937;50.612;6.656;2023-11-21T23:26:57;22.15;;;11.32;;
26269;SDS011;15937;50.612;6.656;2023-11-21T23:30:59;19.77;;;9.20;;
26269;SDS011;15937;50.612;6.656;2023-11-21T23:35:02;18.93;;;11.57;;
26269;SDS011;15937;50.612;6.656;2023-11-21T23:39:05;19.55;;;10.45;;
26269;SDS011;15937;50.612;6.656;2023-11-21T23:43:09;21.90;;;11.15;;
26269;SDS011;15937;50.612;6.656;2023-11-21T23:51:14;24.58;;;12.95;;
26269;SDS011;15937;50.612;6.656;2023-11-21T23:55:17;19.77;;;10.80;;
26269;SDS011;15937;50.612;6.656;2023-11-21T23:59:19;26.50;;;10.35;;
